Time;durP1;ratioP1;P1;durP2;ratioP2;P2;SDS_P1;SDS_P2;PMS_P1;PMS_P2;Temp;Humidity;BMP_temperature;BMP_pressure;BME280_temperature;BME280_humidity;BME280_pressure;Samples;Min_cycle;Max_cycle;Signal;HPM_P1;HPM_P2
2023/12/04 00:02:48;;;;;;;16.13;11.50;;;;;;;-0.84;100.00;101859.81;6103370;28;20232;-76
2023/12/04 00:06:11;;;;;;;13.90;11.17;;;;;;;-0.84;100.00;101851.88;6097875;28;20239;-76
2023/12/04 00:09:32;;;;;;;14.20;11.20;;;;;;;-0.78;100.00;101849.06;6096062;28;20232;-75
2023/12/04 00:12:53;;;;;;;18.20;12.00;;;;;;;-0.82;100.00;101858.84;6095516;28;20235;-76
2023/12/04 00:16:15;;;;;;;12.43;10.17;;;;;;;-0.90;100.00;101857.31;6104042;28;20227;-75
2023/12/04 00:19:36;;;;;;;14.73;10.87;;;;;;;-0.76;100.00;101849.00;6098651;28;20247;-74
2023/12/04 00:22:57;;;;;;;16.57;10.83;;;;;;;-0.78;100.00;101835.81;6101878;28;20661;-75
2023/12/04 00:26:18;;;;;;;14.53;10.33;;;;;;;-0.74;100.00;101841.88;6101486;28;20268;-75
2023/12/04 00:29:39;;;;;;;12.70;9.53;;;;;;;-0.90;100.00;101839.63;6085815;28;20562;-75
2023/12/04 00:33:01;;;;;;;13.23;9.87;;;;;;;-0.90;100.00;101837.00;6109349;28;20503;-74
2023/12/04 00:36:22;;;;;;;16.60;11.17;;;;;;;-1.07;100.00;101830.44;6116026;28;20247;-74
2023/12/04 00:39:43;;;;;;;11.27;8.87;;;;;;;-1.00;100.00;101827.56;6132230;28;20303;-74
2023/12/04 00:43:04;;;;;;;15.53;10.87;;;;;;;-1.02;100.00;101836.44;6109916;28;20236;-75
2023/12/04 00:46:25;;;;;;;11.83;9.53;;;;;;;-1.16;100.00;101836.81;6107732;28;20240;-73
2023/12/04 00:49:48;;;;;;;16.50;12.07;;;;;;;-0.99;100.00;101839.91;6105514;28;20290;-74
2023/12/04 00:53:09;;;;;;;12.07;10.80;;;;;;;-0.99;100.00;101844.31;6116328;28;20232;-74
2023/12/04 00:56:30;;;;;;;14.23;9.73;;;;;;;-1.08;100.00;101839.25;6104326;28;21062;-74
2023/12/04 00:59:52;;;;;;;13.10;10.37;;;;;;;-1.26;100.00;101839.72;6102656;28;20239;-75
2023/12/04 01:03:13;;;;;;;14.87;9.63;;;;;;;-1.30;100.00;101830.13;6100990;28;20587;-75
2023/12/04 01:06:37;;;;;;;15.23;13.17;;;;;;;-1.11;100.00;101812.91;6103364;28;20240;-76
2023/12/04 01:09:57;;;;;;;10.37;9.37;;;;;;;-1.10;100.00;101812.84;6102167;28;20237;-75
2023/12/04 01:13:19;;;;;;;13.23;9.83;;;;;;;-1.11;100.00;101810.25;6100750;28;20228;-75
2023/12/04 01:16:40;;;;;;;12.57;8.90;;;;;;;-1.20;100.00;101806.06;6101762;28;20347;-75
2023/12/04 01:20:01;;;;;;;15.37;10.30;;;;;;;-1.14;100.00;101807.66;6102012;28;20260;-76
2023/12/04 01:23:23;;;;;;;13.53;10.70;;;;;;;-1.17;100.00;101810.41;6101633;28;20223;-75
2023/12/04 01:26:44;;;;;;;13.70;10.30;;;;;;;-1.22;100.00;101799.94;6100234;28;20236;-75
2023/12/04 01:30:08;;;;;;;16.97;12.20;;;;;;;-1.30;100.00;101806.34;6102494;28;20614;-75
2023/12/04 01:33:31;;;;;;;15.17;10.80;;;;;;;-1.35;100.00;101810.84;6101909;28;20522;-75
2023/12/04 01:36:51;;;;;;;13.53;9.90;;;;;;;-1.47;100.00;101804.13;6098938;28;20258;-74
2023/12/04 01:40:14;;;;;;;16.83;13.13;;;;;;;-1.31;100.00;101796.66;6097115;28;20333;-75
2023/12/04 01:43:35;;;;;;;11.60;9.03;;;;;;;-1.36;100.00;101788.88;6111266;28;20537;-75
2023/12/04 01:46:57;;;;;;;13.93;10.70;;;;;;;-1.34;100.00;101794.97;6095243;28;21510;-75
2023/12/04 01:50:18;;;;;;;14.13;11.87;;;;;;;-1.46;100.00;101795.25;6096628;28;20260;-76
2023/12/04 01:53:41;;;;;;;14.43;11.33;;;;;;;-1.59;100.00;101783.28;6093175;28;20232;-74
2023/12/04 01:57:05;;;;;;;13.00;10.90;;;;;;;-1.40;100.00;101776.63;6097005;28;20649;-75
2023/12/04 02:00:26;;;;;;;16.60;11.30;;;;;;;-1.20;100.00;101769.03;6108365;28;21106;-75
2023/12/04 02:03:47;;;;;;;13.37;10.67;;;;;;;-1.30;100.00;101767.56;6095941;28;20240;-75
2023/12/04 02:07:09;;;;;;;14.27;10.53;;;;;;;-1.43;100.00;101770.53;6095322;28;20605;-75
2023/12/04 02:10:30;;;;;;;13.83;10.80;;;;;;;-1.58;100.00;101758.56;6092534;28;20232;-75
2023/12/04 02:13:52;;;;;;;14.33;10.27;;;;;;;-1.62;100.00;101752.50;6097700;28;20502;-75
2023/12/04 02:17:14;;;;;;;15.27;10.43;;;;;;;-1.76;100.00;101766.94;6098989;28;21431;-75
2023/12/04 02:20:36;;;;;;;16.77;11.90;;;;;;;-1.75;100.00;101755.47;6085145;28;20354;-75
2023/12/04 02:23:58;;;;;;;13.90;11.10;;;;;;;-1.62;100.00;101755.13;6110760;28;20326;-75
2023/12/04 02:27:40;;;;;;;12.73;9.10;;;;;;;-1.48;100.00;101744.19;6096629;28;20232;-75
2023/12/04 02:31:04;;;;;;;15.57;10.80;;;;;;;-1.49;100.00;101738.97;6097081;28;20231;-76
2023/12/04 02:34:26;;;;;;;18.00;13.50;;;;;;;-1.61;100.00;101735.72;6097162;28;20362;-75
2023/12/04 02:37:48;;;;;;;12.47;10.80;;;;;;;-1.66;100.00;101734.09;6096005;28;20236;-75
2023/12/04 02:41:10;;;;;;;13.60;10.57;;;;;;;-1.50;100.00;101730.16;6086014;28;20235;-75
2023/12/04 02:44:31;;;;;;;12.33;11.10;;;;;;;-1.32;100.00;101728.81;6098038;28;20235;-76
2023/12/04 02:47:52;;;;;;;13.73;11.17;;;;;;;-1.17;100.00;101723.13;6096204;28;20251;-76
2023/12/04 02:51:13;;;;;;;16.03;11.20;;;;;;;-1.12;100.00;101719.44;6095092;28;20232;-76
2023/12/04 02:54:34;;;;;;;14.37;11.77;;;;;;;-1.08;100.00;101712.28;6096828;28;20244;-75
2023/12/04 02:57:56;;;;;;;16.27;12.50;;;;;;;-1.16;100.00;101707.22;6082006;28;20235;-75
2023/12/04 03:01:17;;;;;;;12.23;9.50;;;;;;;-1.13;100.00;101703.63;6099830;28;20231;-75
2023/12/04 03:04:38;;;;;;;13.90;10.50;;;;;;;-1.31;100.00;101694.41;6095252;28;20228;-75
2023/12/04 03:07:59;;;;;;;12.90;10.07;;;;;;;-1.29;100.00;101687.28;6092369;28;20824;-75
2023/12/04 03:11:20;;;;;;;12.47;10.10;;;;;;;-1.23;100.00;101691.56;6095658;28;20276;-76
2023/12/04 03:14:42;;;;;;;15.60;11.50;;;;;;;-1.12;100.00;101684.19;6096935;28;20232;-76
2023/12/04 03:18:04;;;;;;;14.33;9.23;;;;;;;-1.32;100.00;101681.22;6095070;28;20240;-75
2023/12/04 03:21:25;;;;;;;13.10;8.50;;;;;;;-1.43;100.00;101681.53;6098408;28;20236;-75
2023/12/04 03:24:46;;;;;;;16.00;9.63;;;;;;;-1.41;100.00;101671.78;6093328;28;20236;-75
2023/12/04 03:28:07;;;;;;;11.27;8.20;;;;;;;-1.34;100.00;101664.53;6110420;28;20241;-77
2023/12/04 03:31:31;;;;;;;11.70;10.40;;;;;;;-1.32;100.00;101660.06;6095887;28;20235;-75
2023/12/04 03:34:52;;;;;;;13.53;10.17;;;;;;;-1.31;100.00;101659.16;6096052;28;20251;-75
2023/12/04 03:38:13;;;;;;;11.93;7.87;;;;;;;-1.20;100.00;101657.09;6096529;28;20239;-75
2023/12/04 03:41:34;;;;;;;11.30;8.07;;;;;;;-1.21;100.00;101642.16;6096972;28;20249;-74
2023/12/04 03:44:55;;;;;;;11.97;9.20;;;;;;;-1.00;100.00;101641.53;6095916;28;20231;-74
2023/12/04 03:48:17;;;;;;;11.27;8.70;;;;;;;-1.13;100.00;101637.50;6095639;28;20245;-75
2023/12/04 03:51:38;;;;;;;12.43;9.30;;;;;;;-1.20;100.00;101630.63;6096161;28;20235;-75
2023/12/04 03:54:59;;;;;;;14.20;10.27;;;;;;;-1.22;100.00;101630.69;6098226;28;20634;-74
2023/12/04 03:58:20;;;;;;;11.73;7.37;;;;;;;-1.34;100.00;101619.59;6097141;28;20263;-75
2023/12/04 04:01:41;;;;;;;10.33;8.57;;;;;;;-1.30;100.00;101608.03;6094628;28;20236;-76
2023/12/04 04:05:04;;;;;;;9.03;7.17;;;;;;;-1.37;100.00;101607.31;6096578;28;20239;-75
2023/12/04 04:08:25;;;;;;;11.20;8.93;;;;;;;-1.17;100.00;101601.47;6109584;28;20264;-75
2023/12/04 04:11:46;;;;;;;12.27;9.30;;;;;;;-1.22;100.00;101595.44;6095759;28;20812;-75
2023/12/04 04:15:08;;;;;;;10.20;8.53;;;;;;;-1.15;100.00;101591.72;6066256;28;20235;-74
2023/12/04 04:18:28;;;;;;;12.93;8.73;;;;;;;-1.25;100.00;101580.53;6093817;28;21469;-75
2023/12/04 04:21:51;;;;;;;12.17;7.97;;;;;;;-1.18;100.00;101582.09;6092883;28;20527;-75
2023/12/04 04:25:11;;;;;;;10.33;7.97;;;;;;;-1.08;100.00;101575.59;6092495;28;20252;-75
2023/12/04 04:28:33;;;;;;;12.53;8.60;;;;;;;-1.12;100.00;101579.25;6090782;28;20265;-74
2023/12/04 04:31:54;;;;;;;13.33;8.23;;;;;;;-1.03;100.00;101567.53;6089778;28;20366;-75
2023/12/04 04:35:14;;;;;;;12.57;9.40;;;;;;;-0.90;100.00;101574.19;6096100;28;20236;-75
2023/12/04 04:38:37;;;;;;;8.60;6.83;;;;;;;-1.01;100.00;101560.41;6098984;28;20237;-74
2023/12/04 04:41:58;;;;;;;8.10;7.07;;;;;;;-0.91;100.00;101573.31;6111753;28;20259;-75
2023/12/04 04:45:19;;;;;;;13.27;9.77;;;;;;;-0.73;100.00;101573.69;6093473;28;20236;-74
2023/12/04 04:48:40;;;;;;;12.20;9.87;;;;;;;-0.96;100.00;101569.09;6106873;28;20286;-74
2023/12/04 04:52:01;;;;;;;17.27;9.63;;;;;;;-1.02;100.00;101571.91;6088615;28;20741;-75
2023/12/04 04:55:24;;;;;;;12.10;8.07;;;;;;;-0.84;100.00;101561.66;6099107;28;20240;-75
2023/12/04 04:58:45;;;;;;;8.97;7.23;;;;;;;-0.86;100.00;101560.84;6100989;28;20244;-74
2023/12/04 05:02:05;;;;;;;12.33;8.43;;;;;;;-0.93;100.00;101561.03;6114643;28;20243;-75
2023/12/04 05:05:26;;;;;;;11.13;7.27;;;;;;;-0.85;100.00;101551.97;6100681;28;20232;-75
2023/12/04 05:08:47;;;;;;;13.63;9.83;;;;;;;-0.90;100.00;101553.88;6099303;28;20251;-75
2023/12/04 05:12:10;;;;;;;10.60;7.67;;;;;;;-0.98;100.00;101540.03;6100183;28;20231;-73
2023/12/04 05:15:31;;;;;;;11.13;7.57;;;;;;;-0.95;100.00;101541.72;6112725;28;20236;-75
2023/12/04 05:18:52;;;;;;;9.97;8.40;;;;;;;-1.03;100.00;101541.09;6101522;28;20236;-73
2023/12/04 05:22:13;;;;;;;21.20;11.20;;;;;;;-1.15;100.00;101525.59;6101848;28;20906;-75
2023/12/04 05:25:34;;;;;;;10.93;8.10;;;;;;;-1.14;100.00;101529.97;6099818;28;20259;-75
2023/12/04 05:28:56;;;;;;;11.13;8.07;;;;;;;-1.07;100.00;101524.44;6097662;28;20244;-75
2023/12/04 05:32:17;;;;;;;9.67;7.77;;;;;;;-1.17;100.00;101522.13;6098993;28;20240;-75
2023/12/04 05:35:38;;;;;;;12.23;8.53;;;;;;;-1.07;100.00;101523.56;6098490;28;20245;-75
2023/12/04 05:38:59;;;;;;;12.67;9.30;;;;;;;-0.93;100.00;101511.66;6097956;28;20243;-75
2023/12/04 05:42:20;;;;;;;10.93;9.80;;;;;;;-0.86;100.00;101517.63;6098580;28;20586;-75
2023/12/04 05:45:43;;;;;;;12.23;8.07;;;;;;;-1.10;100.00;101518.38;6084557;28;20240;-74
2023/12/04 05:49:05;;;;;;;13.80;8.47;;;;;;;-1.13;100.00;101527.28;6099271;28;20228;-75
2023/12/04 05:52:26;;;;;;;12.87;9.00;;;;;;;-1.06;100.00;101514.72;6099546;28;20631;-74
2023/12/04 05:55:47;;;;;;;13.63;10.03;;;;;;;-0.91;100.00;101512.47;6099617;28;20239;-75
2023/12/04 05:59:08;;;;;;;13.43;8.10;;;;;;;-0.86;100.00;101518.50;6093576;28;20325;-74
2023/12/04 06:02:30;;;;;;;9.70;7.40;;;;;;;-0.92;100.00;101501.94;6092286;28;20725;-74
2023/12/04 06:05:51;;;;;;;14.13;9.43;;;;;;;-0.86;100.00;101504.41;6094065;28;20236;-74
2023/12/04 06:09:15;;;;;;;13.30;8.63;;;;;;;-1.00;100.00;101502.16;6097269;28;20235;-75
2023/12/04 06:12:36;;;;;;;14.30;9.63;;;;;;;-1.11;100.00;101495.50;6092759;28;20258;-75
2023/12/04 06:15:57;;;;;;;12.67;8.10;;;;;;;-1.14;100.00;101487.63;6095003;28;20235;-75
2023/12/04 06:19:19;;;;;;;14.50;9.47;;;;;;;-1.19;100.00;101489.59;6093938;28;20366;-78
2023/12/04 06:22:41;;;;;;;12.80;9.47;;;;;;;-1.19;100.00;101486.94;6092930;28;21824;-74
2023/12/04 06:26:02;;;;;;;12.43;9.90;;;;;;;-1.22;100.00;101477.31;6090914;28;20251;-73
2023/12/04 06:29:24;;;;;;;12.93;11.33;;;;;;;-1.36;100.00;101489.22;6092602;28;20513;-72
2023/12/04 06:32:46;;;;;;;16.17;11.90;;;;;;;-1.37;100.00;101484.84;6090310;28;20623;-74
2023/12/04 06:36:12;;;;;;;16.30;10.87;;;;;;;-1.32;100.00;101481.16;6063016;28;20605;-72
2023/12/04 06:39:34;;;;;;;14.63;11.80;;;;;;;-1.15;100.00;101478.00;6097049;28;20602;-69
2023/12/04 06:42:55;;;;;;;13.53;10.47;;;;;;;-0.98;100.00;101486.25;6091990;28;20642;-70
2023/12/04 06:46:18;;;;;;;10.47;8.60;;;;;;;-1.00;100.00;101478.34;6093613;28;20239;-73
2023/12/04 06:49:41;;;;;;;10.30;7.87;;;;;;;-1.00;100.00;101480.16;6094894;28;20264;-71
2023/12/04 06:53:03;;;;;;;13.77;9.37;;;;;;;-1.17;100.00;101477.19;6095265;28;20705;-73
2023/12/04 06:56:24;;;;;;;14.13;11.83;;;;;;;-1.23;100.00;101480.00;6096767;28;20240;-73
2023/12/04 06:59:47;;;;;;;14.80;10.37;;;;;;;-1.03;100.00;101480.25;6093556;28;20244;-75
2023/12/04 07:03:08;;;;;;;13.07;10.50;;;;;;;-0.97;100.00;101475.63;6096222;28;20232;-73
2023/12/04 07:06:29;;;;;;;14.37;10.87;;;;;;;-1.14;100.00;101471.78;6089758;28;20631;-73
2023/12/04 07:09:52;;;;;;;13.90;11.83;;;;;;;-1.15;100.00;101472.69;6095844;28;20262;-69
2023/12/04 07:13:14;;;;;;;17.90;11.37;;;;;;;-1.04;100.00;101470.56;6095010;28;20247;-72
2023/12/04 07:16:40;;;;;;;14.83;9.33;;;;;;;-1.23;100.00;101477.38;6088929;28;20263;-74
2023/12/04 07:20:02;;;;;;;14.43;10.57;;;;;;;-1.02;100.00;101469.59;6090647;28;20243;-75
2023/12/04 07:23:24;;;;;;;15.17;11.10;;;;;;;-0.96;100.00;101469.41;6097509;28;20327;-74
2023/12/04 07:26:47;;;;;;;17.17;9.33;;;;;;;-1.01;100.00;101462.53;6097360;28;20240;-73
2023/12/04 07:30:09;;;;;;;15.23;11.10;;;;;;;-0.89;100.00;101465.66;6098143;28;20243;-73
2023/12/04 07:33:30;;;;;;;13.20;9.77;;;;;;;-1.08;100.00;101467.16;6098879;28;20292;-75
2023/12/04 07:36:51;;;;;;;12.97;10.00;;;;;;;-0.99;100.00;101463.34;6098000;28;20319;-71
2023/12/04 07:40:13;;;;;;;16.83;11.63;;;;;;;-0.93;100.00;101460.50;6098270;28;20228;-75
2023/12/04 07:43:35;;;;;;;13.07;8.63;;;;;;;-0.90;100.00;101457.78;6095023;28;20240;-73
2023/12/04 07:46:57;;;;;;;10.33;8.23;;;;;;;-0.83;100.00;101454.88;6099433;28;20251;-72
2023/12/04 07:50:17;;;;;;;14.80;11.17;;;;;;;-0.89;100.00;101457.72;6101414;28;20240;-73
2023/12/04 07:53:38;;;;;;;12.90;10.87;;;;;;;-0.76;100.00;101454.66;6101255;28;20247;-74
2023/12/04 07:57:00;;;;;;;14.03;11.77;;;;;;;-0.83;100.00;101456.66;6101870;28;20232;-75
2023/12/04 08:00:22;;;;;;;13.37;10.10;;;;;;;-0.73;100.00;101444.00;6089243;28;20259;-75
2023/12/04 08:03:43;;;;;;;11.60;8.57;;;;;;;-0.75;100.00;101451.97;6095783;28;20610;-72
2023/12/04 08:07:05;;;;;;;14.30;9.80;;;;;;;-0.67;100.00;101455.25;6099784;28;20263;-73
2023/12/04 08:10:26;;;;;;;12.03;9.27;;;;;;;-0.54;100.00;101450.41;6099670;28;20240;-74
2023/12/04 08:13:47;;;;;;;13.97;11.47;;;;;;;-0.51;100.00;101440.56;6096311;28;20241;-76
2023/12/04 08:17:09;;;;;;;12.27;10.37;;;;;;;-0.61;100.00;101435.63;6095156;28;20295;-73
2023/12/04 08:20:30;;;;;;;13.93;10.67;;;;;;;-0.85;100.00;101442.59;6098101;28;20239;-77
2023/12/04 08:23:51;;;;;;;12.57;10.53;;;;;;;-0.64;100.00;101418.06;6086494;28;20231;-76
2023/12/04 08:27:12;;;;;;;14.30;10.97;;;;;;;-0.76;100.00;101431.72;6099789;28;20235;-78
2023/12/04 08:30:33;;;;;;;12.73;10.87;;;;;;;-0.79;100.00;101421.22;6096443;28;20240;-76
2023/12/04 08:33:55;;;;;;;10.33;8.93;;;;;;;-0.99;100.00;101426.31;6091357;28;20284;-73
2023/12/04 08:37:16;;;;;;;13.10;10.63;;;;;;;-1.02;100.00;101418.47;6099065;28;20335;-70
2023/12/04 08:40:37;;;;;;;14.57;9.67;;;;;;;-0.78;100.00;101432.69;6075843;28;20240;-74
2023/12/04 08:43:58;;;;;;;15.20;9.40;;;;;;;-0.86;100.00;101425.00;6101540;28;20491;-73
2023/12/04 08:47:19;;;;;;;14.30;12.87;;;;;;;-0.68;100.00;101434.97;6104766;28;20243;-72
2023/12/04 08:50:41;;;;;;;14.67;9.63;;;;;;;-0.55;100.00;101422.19;6093905;28;20241;-74
2023/12/04 08:54:03;;;;;;;13.70;9.93;;;;;;;-0.68;100.00;101434.09;6103045;28;20516;-71
2023/12/04 08:57:24;;;;;;;12.47;11.20;;;;;;;-0.53;100.00;101428.28;6101407;28;20236;-72
2023/12/04 09:00:45;;;;;;;13.87;11.20;;;;;;;-0.50;100.00;101423.75;6103805;28;20294;-75
2023/12/04 09:04:08;;;;;;;15.73;11.23;;;;;;;-0.69;100.00;101425.31;6105084;28;20754;-73
2023/12/04 09:07:30;;;;;;;12.77;10.83;;;;;;;-0.59;100.00;101425.84;6102283;28;21471;-73
2023/12/04 09:10:51;;;;;;;15.93;11.40;;;;;;;-0.91;100.00;101430.44;6101380;28;20232;-74
2023/12/04 09:14:12;;;;;;;13.40;11.80;;;;;;;-0.66;100.00;101414.59;6102239;28;20239;-74
2023/12/04 09:17:33;;;;;;;13.53;10.47;;;;;;;-0.72;100.00;101428.06;6088267;28;20286;-74
2023/12/04 09:20:54;;;;;;;14.67;9.47;;;;;;;-0.59;100.00;101421.44;6099752;28;20264;-72
2023/12/04 09:24:16;;;;;;;15.70;10.43;;;;;;;-0.71;100.00;101426.28;6100687;28;20323;-73
2023/12/04 09:27:37;;;;;;;14.63;9.87;;;;;;;-0.49;100.00;101416.66;6101057;28;20231;-73
2023/12/04 09:30:59;;;;;;;15.93;11.03;;;;;;;-0.53;100.00;101417.69;6099296;28;20263;-75
2023/12/04 09:34:20;;;;;;;10.50;9.40;;;;;;;-0.74;100.00;101421.06;6101910;28;20240;-76
2023/12/04 09:37:42;;;;;;;16.00;10.67;;;;;;;-0.50;100.00;101420.25;6100566;28;20252;-71
2023/12/04 09:41:07;;;;;;;13.20;10.60;;;;;;;-0.60;100.00;101417.03;6100775;28;20264;-73
2023/12/04 09:44:30;;;;;;;17.97;12.77;;;;;;;-0.51;100.00;101418.50;6098552;28;20247;-74
2023/12/04 09:47:51;;;;;;;17.87;11.60;;;;;;;-0.18;100.00;101417.31;6099227;28;20235;-76
2023/12/04 09:51:13;;;;;;;14.73;11.60;;;;;;;-0.09;100.00;101420.50;6086611;28;20236;-74
2023/12/04 09:54:37;;;;;;;11.53;10.03;;;;;;;-0.43;100.00;101416.44;6104260;28;20326;-73
2023/12/04 09:58:00;;;;;;;15.27;11.17;;;;;;;-0.20;100.00;101404.13;6103370;28;20236;-73
2023/12/04 10:01:22;;;;;;;13.37;10.00;;;;;;;-0.06;100.00;101399.19;6100575;28;20237;-73
2023/12/04 10:04:43;;;;;;;13.93;11.67;;;;;;;0.02;100.00;101392.75;6114115;28;20236;-73
2023/12/04 10:08:04;;;;;;;12.17;9.13;;;;;;;-0.02;100.00;101391.97;6102441;28;20334;-73
2023/12/04 10:11:26;;;;;;;15.47;10.50;;;;;;;0.04;100.00;101380.31;6114949;28;20258;-73
2023/12/04 10:15:03;;;;;;;14.90;11.63;;;;;;;0.21;100.00;101376.06;6097666;28;20244;-74
2023/12/04 10:18:30;;;;;;;13.40;9.87;;;;;;;0.17;100.00;101365.69;6102681;28;22316;-73
2023/12/04 10:21:51;;;;;;;14.40;12.10;;;;;;;0.15;100.00;101360.41;6103192;28;20240;-72
2023/12/04 10:25:16;;;;;;;11.43;9.70;;;;;;;0.17;100.00;101353.25;6088073;28;20268;-72
2023/12/04 10:28:37;;;;;;;13.03;10.43;;;;;;;-0.09;100.00;101345.47;6105308;28;20298;-73
2023/12/04 10:32:01;;;;;;;12.63;10.23;;;;;;;-0.04;100.00;101349.66;6101733;28;20239;-73
2023/12/04 10:35:22;;;;;;;12.60;8.27;;;;;;;0.26;100.00;101338.78;6099868;28;20326;-73
2023/12/04 10:38:43;;;;;;;11.90;9.20;;;;;;;0.38;100.00;101333.88;6102903;28;20247;-73
2023/12/04 10:42:06;;;;;;;11.33;8.97;;;;;;;0.24;100.00;101345.94;6101952;28;20236;-73
2023/12/04 10:45:27;;;;;;;11.90;9.30;;;;;;;0.31;100.00;101337.72;6098507;28;20240;-73
2023/12/04 10:48:50;;;;;;;11.10;9.03;;;;;;;0.44;100.00;101338.94;6101265;28;20605;-73
2023/12/04 10:52:11;;;;;;;13.83;11.23;;;;;;;0.19;100.00;101337.31;6101069;28;20236;-73
2023/12/04 10:55:32;;;;;;;12.17;9.40;;;;;;;0.27;100.00;101337.88;6105107;28;20264;-74
2023/12/04 10:58:56;;;;;;;13.13;8.30;;;;;;;0.43;100.00;101326.63;6099317;28;20244;-74
2023/12/04 11:02:24;;;;;;;12.17;11.07;;;;;;;0.31;100.00;101332.41;6100938;28;20267;-73
2023/12/04 11:05:50;;;;;;;15.57;12.33;;;;;;;0.13;100.00;101324.28;6099147;28;20231;-73
2023/12/04 11:09:11;;;;;;;16.73;11.50;;;;;;;0.48;100.00;101319.31;6101635;28;20236;-73
2023/12/04 11:12:33;;;;;;;11.60;10.37;;;;;;;0.53;100.00;101309.41;6095828;28;20760;-72
2023/12/04 11:16:00;;;;;;;11.50;9.37;;;;;;;0.62;100.00;101308.16;6112786;28;20256;-72
2023/12/04 11:19:27;;;;;;;11.83;9.07;;;;;;;0.60;100.00;101313.53;6102327;28;20638;-72
2023/12/04 11:22:51;;;;;;;12.77;9.97;;;;;;;0.78;100.00;101301.28;6102497;28;20259;-72
2023/12/04 11:26:14;;;;;;;11.70;9.90;;;;;;;0.58;100.00;101295.97;6095102;28;20803;-72
2023/12/04 11:29:37;;;;;;;15.63;10.60;;;;;;;0.72;100.00;101297.13;6099618;28;20228;-73
2023/12/04 11:33:00;;;;;;;13.10;10.63;;;;;;;0.63;100.00;101294.84;6100232;28;20236;-72
2023/12/04 11:36:22;;;;;;;11.47;8.87;;;;;;;0.60;100.00;101302.94;6093361;28;20239;-72
2023/12/04 11:39:48;;;;;;;11.93;9.67;;;;;;;0.66;100.00;101296.50;6100570;28;20247;-71
2023/12/04 11:43:23;;;;;;;9.43;8.53;;;;;;;0.78;100.00;101288.03;6096136;28;20264;-74
2023/12/04 11:47:06;;;;;;;12.70;9.90;;;;;;;0.86;100.00;101288.56;6094987;28;20575;-72
2023/12/04 11:50:28;;;;;;;12.13;10.80;;;;;;;0.85;100.00;101281.53;6088856;28;20326;-72
2023/12/04 11:53:49;;;;;;;10.47;8.37;;;;;;;0.73;100.00;101287.38;6102592;28;20524;-74
2023/12/04 11:57:25;;;;;;;12.20;9.67;;;;;;;0.75;100.00;101266.94;6107318;28;20372;-74
2023/12/04 12:00:46;;;;;;;10.47;9.43;;;;;;;0.64;100.00;101269.19;6095852;28;20322;-73
2023/12/04 12:04:09;;;;;;;12.87;10.57;;;;;;;0.94;100.00;101261.72;6096202;28;20240;-73
2023/12/04 12:07:32;;;;;;;10.63;7.83;;;;;;;0.81;100.00;101258.72;6095364;28;20574;-75
2023/12/04 12:10:54;;;;;;;10.77;9.67;;;;;;;0.68;100.00;101244.25;6100213;28;20259;-76
2023/12/04 12:14:20;;;;;;;12.70;10.17;;;;;;;0.57;100.00;101242.03;6103733;28;20239;-78
2023/12/04 12:17:42;;;;;;;11.20;9.37;;;;;;;0.75;100.00;101235.94;6100708;28;20235;-74
2023/12/04 12:21:04;;;;;;;11.70;8.30;;;;;;;0.75;100.00;101232.47;6099261;28;20235;-74
2023/12/04 12:24:26;;;;;;;12.40;8.10;;;;;;;0.67;100.00;101223.94;6099478;28;20240;-75
2023/12/04 12:27:46;;;;;;;13.30;9.07;;;;;;;0.61;100.00;101235.69;6103066;28;20236;-72
2023/12/04 12:31:09;;;;;;;11.00;8.20;;;;;;;0.26;100.00;101225.69;6094809;28;20240;-74
2023/12/04 12:34:31;;;;;;;12.10;9.07;;;;;;;0.26;100.00;101217.72;6083077;28;21353;-73
2023/12/04 12:37:54;;;;;;;11.90;9.20;;;;;;;0.32;100.00;101212.16;6103234;28;20240;-73
2023/12/04 12:41:17;;;;;;;13.53;9.63;;;;;;;0.34;100.00;101204.16;6105501;28;20228;-73
2023/12/04 12:44:40;;;;;;;10.97;9.47;;;;;;;0.22;100.00;101197.56;6103582;28;22088;-71
2023/12/04 12:48:03;;;;;;;11.93;9.67;;;;;;;0.16;100.00;101196.97;6114452;28;20311;-72
2023/12/04 12:51:24;;;;;;;16.13;11.27;;;;;;;0.30;100.00;101186.66;6104972;28;20370;-71
2023/12/04 12:54:45;;;;;;;8.27;6.93;;;;;;;0.45;100.00;101178.06;6094424;28;20251;-72
2023/12/04 12:58:06;;;;;;;10.57;8.33;;;;;;;0.71;100.00;101170.69;6105149;28;20235;-71
2023/12/04 13:01:31;;;;;;;12.37;8.10;;;;;;;0.74;100.00;101173.22;6103094;28;20259;-71
2023/12/04 13:04:53;;;;;;;18.30;12.47;;;;;;;0.61;100.00;101165.84;6098382;28;20223;-73
2023/12/04 13:08:15;;;;;;;9.90;8.53;;;;;;;0.47;100.00;101168.25;6103360;28;20586;-73
2023/12/04 13:11:37;;;;;;;12.67;9.23;;;;;;;0.51;100.00;101156.56;6102403;28;20801;-73
2023/12/04 13:14:58;;;;;;;10.87;9.40;;;;;;;0.75;100.00;101158.19;6104714;28;20323;-73
2023/12/04 13:18:19;;;;;;;11.20;9.77;;;;;;;0.82;100.00;101151.66;6115315;28;20299;-73
2023/12/04 13:21:42;;;;;;;10.00;8.83;;;;;;;0.69;100.00;101147.81;6088390;28;20267;-75
2023/12/04 13:25:07;;;;;;;13.03;10.57;;;;;;;1.03;100.00;101141.88;6098859;28;20244;-73
2023/12/04 13:28:27;;;;;;;10.53;9.17;;;;;;;0.92;100.00;101136.19;6101516;28;20848;-71
2023/12/04 13:31:49;;;;;;;10.23;8.00;;;;;;;0.72;100.00;101139.72;6095245;28;20240;-77
2023/12/04 13:35:11;;;;;;;10.83;8.70;;;;;;;0.76;100.00;101123.63;6073391;28;20232;-75
2023/12/04 13:38:35;;;;;;;12.80;8.87;;;;;;;0.92;100.00;101118.47;6100212;28;20236;-74
2023/12/04 13:45:35;;;;;;;11.03;9.27;;;;;;;1.24;100.00;101122.28;6100529;28;20240;-79
2023/12/04 13:48:57;;;;;;;9.00;7.23;;;;;;;1.24;100.00;101119.66;6103951;28;20240;-73
2023/12/04 13:52:22;;;;;;;12.23;8.87;;;;;;;1.17;100.00;101115.56;6112084;28;20263;-78
2023/12/04 13:56:10;;;;;;;10.80;9.57;;;;;;;0.98;100.00;101107.56;6103381;28;20240;-75
2023/12/04 13:59:31;;;;;;;10.83;8.37;;;;;;;0.86;100.00;101102.81;6100903;28;20314;-73
2023/12/04 14:02:53;;;;;;;8.97;7.97;;;;;;;0.86;100.00;101109.91;6100251;28;20237;-76
2023/12/04 14:06:15;;;;;;;10.90;8.27;;;;;;;0.77;100.00;101113.88;6102686;28;20260;-78
2023/12/04 14:09:36;;;;;;;11.40;7.47;;;;;;;0.72;100.00;101107.91;6103206;28;20518;-77
2023/12/04 14:12:59;;;;;;;9.90;8.90;;;;;;;0.85;100.00;101105.56;6100834;28;20255;-77
2023/12/04 14:16:20;;;;;;;11.70;9.07;;;;;;;0.90;100.00;101099.09;6101800;28;20244;-75
2023/12/04 14:19:41;;;;;;;12.50;9.37;;;;;;;0.97;100.00;101094.38;6093111;28;20244;-76
2023/12/04 14:23:02;;;;;;;8.90;7.97;;;;;;;0.87;100.00;101088.66;6102973;28;20240;-75
2023/12/04 14:26:23;;;;;;;12.40;8.10;;;;;;;0.71;100.00;101090.25;6098451;28;20240;-73
2023/12/04 14:29:45;;;;;;;14.10;9.00;;;;;;;0.74;100.00;101088.34;6087623;28;20622;-76
2023/12/04 14:33:06;;;;;;;14.47;10.57;;;;;;;0.71;100.00;101085.81;6096921;28;20239;-73
2023/12/04 14:36:27;;;;;;;14.13;9.90;;;;;;;0.71;100.00;101088.47;6104824;28;20247;-76
2023/12/04 14:39:48;;;;;;;9.63;8.63;;;;;;;0.66;100.00;101097.56;6087906;28;20232;-73
2023/12/04 14:43:10;;;;;;;11.00;7.63;;;;;;;0.67;100.00;101084.22;6101597;28;20236;-73
2023/12/04 14:46:33;;;;;;;11.30;9.23;;;;;;;0.67;100.00;101083.34;6100771;28;20606;-79
2023/12/04 14:49:56;;;;;;;10.73;8.20;;;;;;;0.54;100.00;101088.34;6102379;28;21285;-78
2023/12/04 14:53:28;;;;;;;9.30;6.77;;;;;;;0.57;100.00;101090.00;6103251;28;20877;-72
2023/12/04 15:04:53;;;;;;;15.33;11.90;;;;;;;0.47;100.00;101072.78;6194006;28;20316;-75
2023/12/04 15:09:17;;;;;;;14.20;10.07;;;;;;;0.61;100.00;101063.28;6186521;28;20721;-73
2023/12/04 15:12:24;;;;;;;13.63;11.27;;;;;;;0.60;100.00;101064.22;6194017;28;20233;-75
2023/12/04 15:16:13;;;;;;;12.00;8.93;;;;;;;0.58;100.00;101055.50;6196149;28;20233;-74
2023/12/04 15:19:35;;;;;;;9.97;8.10;;;;;;;0.60;100.00;101050.09;6196214;28;20288;-75
2023/12/04 15:22:57;;;;;;;9.03;7.43;;;;;;;0.59;100.00;101059.84;6196060;28;20244;-74
2023/12/04 15:26:18;;;;;;;12.50;9.93;;;;;;;0.62;100.00;101050.91;6197055;28;20237;-74
2023/12/04 15:29:38;;;;;;;11.27;9.27;;;;;;;0.51;100.00;101045.19;6194961;28;20229;-74
2023/12/04 15:33:01;;;;;;;9.67;8.30;;;;;;;0.50;100.00;101051.44;6198924;28;20233;-74